sensor_id;sensor_type;location;lat;lon;timestamp;P1;durP1;ratioP1;P2;durP2;ratioP2
39994;SDS011;25686;51.908;10.418;2022-09-09T00:07:50;4.35;;;1.30;;
39994;SDS011;25686;51.908;10.418;2022-09-09T00:10:03;2.10;;;0.90;;
39994;SDS011;25686;51.908;10.418;2022-09-09T00:14:11;4.38;;;1.00;;
39994;SDS011;25686;51.908;10.418;2022-09-09T00:20:32;1.92;;;0.73;;
39994;SDS011;25686;51.908;10.418;2022-09-09T00:22:36;2.45;;;1.17;;
39994;SDS011;25686;51.908;10.418;2022-09-09T00:24:46;3.22;;;1.13;;
39994;SDS011;25686;51.908;10.418;2022-09-09T00:26:51;3.17;;;1.08;;
39994;SDS011;25686;51.908;10.418;2022-09-09T00:31:14;2.30;;;0.88;;
39994;SDS011;25686;51.908;10.418;2022-09-09T00:33:17;5.93;;;1.20;;
39994;SDS011;25686;51.908;10.418;2022-09-09T00:35:22;1.92;;;0.77;;
39994;SDS011;25686;51.908;10.418;2022-09-09T00:37:24;2.60;;;0.98;;
39994;SDS011;25686;51.908;10.418;2022-09-09T00:39:36;2.63;;;0.93;;
39994;SDS011;25686;51.908;10.418;2022-09-09T00:43:40;4.65;;;1.20;;
39994;SDS011;25686;51.908;10.418;2022-09-09T00:47:51;3.03;;;1.17;;
39994;SDS011;25686;51.908;10.418;2022-09-09T00:49:59;3.22;;;1.08;;
39994;SDS011;25686;51.908;10.418;2022-09-09T00:54:26;5.00;;;1.25;;
39994;SDS011;25686;51.908;10.418;2022-09-09T00:56:30;4.10;;;1.30;;
39994;SDS011;25686;51.908;10.418;2022-09-09T00:58:37;2.72;;;1.20;;
39994;SDS011;25686;51.908;10.418;2022-09-09T01:00:42;4.57;;;1.10;;
39994;SDS011;25686;51.908;10.418;2022-09-09T01:04:47;7.15;;;1.20;;
39994;SDS011;25686;51.908;10.418;2022-09-09T01:06:50;3.88;;;1.10;;
39994;SDS011;25686;51.908;10.418;2022-09-09T01:11:00;4.35;;;1.20;;
39994;SDS011;25686;51.908;10.418;2022-09-09T01:13:02;4.53;;;1.05;;
39994;SDS011;25686;51.908;10.418;2022-09-09T01:15:12;3.33;;;1.13;;
39994;SDS011;25686;51.908;10.418;2022-09-09T01:17:20;4.32;;;1.30;;
39994;SDS011;25686;51.908;10.418;2022-09-09T01:19:28;3.60;;;1.40;;
39994;SDS011;25686;51.908;10.418;2022-09-09T01:21:41;6.75;;;1.35;;
39994;SDS011;25686;51.908;10.418;2022-09-09T01:26:08;4.00;;;1.20;;
39994;SDS011;25686;51.908;10.418;2022-09-09T01:28:13;5.25;;;1.38;;
39994;SDS011;25686;51.908;10.418;2022-09-09T01:30:16;4.75;;;1.40;;
39994;SDS011;25686;51.908;10.418;2022-09-09T01:34:38;4.25;;;1.50;;
39994;SDS011;25686;51.908;10.418;2022-09-09T01:38:42;5.50;;;1.35;;
39994;SDS011;25686;51.908;10.418;2022-09-09T01:40:43;5.07;;;1.58;;
39994;SDS011;25686;51.908;10.418;2022-09-09T01:42:44;6.47;;;1.40;;
39994;SDS011;25686;51.908;10.418;2022-09-09T01:44:45;6.80;;;1.30;;
39994;SDS011;25686;51.908;10.418;2022-09-09T01:46:46;4.47;;;1.23;;
39994;SDS011;25686;51.908;10.418;2022-09-09T01:48:48;5.47;;;1.50;;
39994;SDS011;25686;51.908;10.418;2022-09-09T01:50:49;4.75;;;1.30;;
39994;SDS011;25686;51.908;10.418;2022-09-09T01:52:52;6.25;;;1.30;;
39994;SDS011;25686;51.908;10.418;2022-09-09T01:54:54;4.25;;;1.20;;
39994;SDS011;25686;51.908;10.418;2022-09-09T01:59:04;4.97;;;1.55;;
39994;SDS011;25686;51.908;10.418;2022-09-09T02:01:14;3.67;;;1.30;;
39994;SDS011;25686;51.908;10.418;2022-09-09T02:03:26;5.45;;;1.10;;
39994;SDS011;25686;51.908;10.418;2022-09-09T02:05:38;3.50;;;1.25;;
39994;SDS011;25686;51.908;10.418;2022-09-09T02:07:46;5.13;;;1.20;;
39994;SDS011;25686;51.908;10.418;2022-09-09T02:09:49;3.90;;;1.20;;
39994;SDS011;25686;51.908;10.418;2022-09-09T02:11:55;4.97;;;1.75;;
39994;SDS011;25686;51.908;10.418;2022-09-09T02:14:03;4.60;;;1.48;;
39994;SDS011;25686;51.908;10.418;2022-09-09T02:16:08;6.45;;;1.70;;
39994;SDS011;25686;51.908;10.418;2022-09-09T02:18:12;3.65;;;1.23;;
39994;SDS011;25686;51.908;10.418;2022-09-09T02:20:14;7.78;;;1.50;;
39994;SDS011;25686;51.908;10.418;2022-09-09T02:22:16;2.53;;;1.20;;
39994;SDS011;25686;51.908;10.418;2022-09-09T02:24:18;5.22;;;1.40;;
39994;SDS011;25686;51.908;10.418;2022-09-09T02:26:19;3.25;;;1.40;;
39994;SDS011;25686;51.908;10.418;2022-09-09T02:28:23;3.10;;;1.17;;
39994;SDS011;25686;51.908;10.418;2022-09-09T02:30:26;5.97;;;1.58;;
39994;SDS011;25686;51.908;10.418;2022-09-09T02:32:29;6.10;;;1.52;;
39994;SDS011;25686;51.908;10.418;2022-09-09T02:34:33;7.05;;;1.60;;
39994;SDS011;25686;51.908;10.418;2022-09-09T02:36:36;4.70;;;1.38;;
39994;SDS011;25686;51.908;10.418;2022-09-09T02:38:40;4.88;;;1.30;;
39994;SDS011;25686;51.908;10.418;2022-09-09T02:40:43;4.80;;;1.42;;
39994;SDS011;25686;51.908;10.418;2022-09-09T02:42:46;4.15;;;1.40;;
39994;SDS011;25686;51.908;10.418;2022-09-09T02:44:48;3.13;;;1.33;;
39994;SDS011;25686;51.908;10.418;2022-09-09T02:53:32;6.53;;;1.30;;
39994;SDS011;25686;51.908;10.418;2022-09-09T02:55:38;6.63;;;1.00;;
39994;SDS011;25686;51.908;10.418;2022-09-09T02:57:40;4.43;;;1.38;;
39994;SDS011;25686;51.908;10.418;2022-09-09T02:59:41;3.97;;;1.70;;
39994;SDS011;25686;51.908;10.418;2022-09-09T03:01:43;4.47;;;1.38;;
39994;SDS011;25686;51.908;10.418;2022-09-09T03:03:45;3.22;;;1.25;;
39994;SDS011;25686;51.908;10.418;2022-09-09T03:05:46;6.40;;;1.30;;
39994;SDS011;25686;51.908;10.418;2022-09-09T03:07:47;5.93;;;1.42;;
39994;SDS011;25686;51.908;10.418;2022-09-09T03:09:49;3.42;;;1.17;;
39994;SDS011;25686;51.908;10.418;2022-09-09T03:11:50;5.95;;;1.30;;
39994;SDS011;25686;51.908;10.418;2022-09-09T03:13:51;5.90;;;1.50;;
39994;SDS011;25686;51.908;10.418;2022-09-09T03:15:53;5.95;;;1.40;;
39994;SDS011;25686;51.908;10.418;2022-09-09T03:17:54;5.13;;;1.55;;
39994;SDS011;25686;51.908;10.418;2022-09-09T03:19:55;4.32;;;1.40;;
39994;SDS011;25686;51.908;10.418;2022-09-09T03:21:57;3.50;;;1.35;;
39994;SDS011;25686;51.908;10.418;2022-09-09T03:23:59;7.63;;;1.42;;
39994;SDS011;25686;51.908;10.418;2022-09-09T03:26:03;5.70;;;1.60;;
39994;SDS011;25686;51.908;10.418;2022-09-09T03:28:04;4.50;;;1.48;;
39994;SDS011;25686;51.908;10.418;2022-09-09T03:30:05;5.03;;;1.63;;
39994;SDS011;25686;51.908;10.418;2022-09-09T03:32:07;4.45;;;1.50;;
39994;SDS011;25686;51.908;10.418;2022-09-09T03:34:10;4.72;;;1.30;;
39994;SDS011;25686;51.908;10.418;2022-09-09T03:36:11;3.63;;;1.67;;
39994;SDS011;25686;51.908;10.418;2022-09-09T03:38:12;6.30;;;1.70;;
39994;SDS011;25686;51.908;10.418;2022-09-09T03:40:13;3.78;;;1.45;;
39994;SDS011;25686;51.908;10.418;2022-09-09T03:42:15;4.47;;;1.00;;
39994;SDS011;25686;51.908;10.418;2022-09-09T03:44:18;6.13;;;1.50;;
39994;SDS011;25686;51.908;10.418;2022-09-09T03:46:20;6.50;;;1.23;;
39994;SDS011;25686;51.908;10.418;2022-09-09T03:48:21;3.75;;;1.48;;
39994;SDS011;25686;51.908;10.418;2022-09-09T03:50:22;3.63;;;1.50;;
39994;SDS011;25686;51.908;10.418;2022-09-09T03:52:23;4.07;;;1.48;;
39994;SDS011;25686;51.908;10.418;2022-09-09T03:54:26;6.30;;;1.20;;
39994;SDS011;25686;51.908;10.418;2022-09-09T03:56:27;5.60;;;1.50;;
39994;SDS011;25686;51.908;10.418;2022-09-09T03:58:28;4.38;;;1.50;;
39994;SDS011;25686;51.908;10.418;2022-09-09T04:00:29;6.20;;;1.80;;
39994;SDS011;25686;51.908;10.418;2022-09-09T04:02:30;9.23;;;1.95;;
39994;SDS011;25686;51.908;10.418;2022-09-09T04:04:31;5.00;;;1.27;;
39994;SDS011;25686;51.908;10.418;2022-09-09T04:06:32;6.20;;;1.50;;
39994;SDS011;25686;51.908;10.418;2022-09-09T04:08:33;5.70;;;1.58;;
39994;SDS011;25686;51.908;10.418;2022-09-09T04:10:35;4.22;;;1.45;;
39994;SDS011;25686;51.908;10.418;2022-09-09T04:12:37;5.03;;;1.40;;
39994;SDS011;25686;51.908;10.418;2022-09-09T04:14:38;6.93;;;1.75;;
39994;SDS011;25686;51.908;10.418;2022-09-09T04:16:39;9.18;;;1.80;;
39994;SDS011;25686;51.908;10.418;2022-09-09T04:18:43;7.63;;;1.60;;
39994;SDS011;25686;51.908;10.418;2022-09-09T04:20:45;11.82;;;1.67;;
39994;SDS011;25686;51.908;10.418;2022-09-09T04:22:46;6.30;;;1.60;;
39994;SDS011;25686;51.908;10.418;2022-09-09T04:24:47;7.93;;;1.60;;
39994;SDS011;25686;51.908;10.418;2022-09-09T04:26:48;5.88;;;1.58;;
39994;SDS011;25686;51.908;10.418;2022-09-09T04:28:49;5.20;;;1.45;;
39994;SDS011;25686;51.908;10.418;2022-09-09T04:30:51;3.10;;;1.50;;
39994;SDS011;25686;51.908;10.418;2022-09-09T04:32:52;5.72;;;1.48;;
39994;SDS011;25686;51.908;10.418;2022-09-09T04:34:53;4.45;;;1.60;;
39994;SDS011;25686;51.908;10.418;2022-09-09T04:36:54;6.80;;;1.60;;
39994;SDS011;25686;51.908;10.418;2022-09-09T04:38:56;8.13;;;1.58;;
39994;SDS011;25686;51.908;10.418;2022-09-09T04:40:57;5.78;;;1.55;;
39994;SDS011;25686;51.908;10.418;2022-09-09T04:43:02;5.30;;;1.52;;
39994;SDS011;25686;51.908;10.418;2022-09-09T04:45:06;5.70;;;1.63;;
39994;SDS011;25686;51.908;10.418;2022-09-09T04:47:07;4.30;;;1.48;;
39994;SDS011;25686;51.908;10.418;2022-09-09T04:49:08;3.72;;;1.40;;
39994;SDS011;25686;51.908;10.418;2022-09-09T04:51:10;5.03;;;1.50;;
39994;SDS011;25686;51.908;10.418;2022-09-09T04:53:12;6.45;;;1.45;;
39994;SDS011;25686;51.908;10.418;2022-09-09T04:55:13;6.75;;;1.40;;
39994;SDS011;25686;51.908;10.418;2022-09-09T04:57:14;4.65;;;1.45;;
39994;SDS011;25686;51.908;10.418;2022-09-09T04:59:15;3.85;;;1.40;;
39994;SDS011;25686;51.908;10.418;2022-09-09T05:01:17;5.57;;;1.30;;
39994;SDS011;25686;51.908;10.418;2022-09-09T05:03:18;7.30;;;1.45;;
39994;SDS011;25686;51.908;10.418;2022-09-09T05:05:19;4.60;;;1.30;;
39994;SDS011;25686;51.908;10.418;2022-09-09T05:07:20;5.90;;;2.03;;
39994;SDS011;25686;51.908;10.418;2022-09-09T05:09:21;2.47;;;1.20;;
39994;SDS011;25686;51.908;10.418;2022-09-09T05:11:26;5.93;;;1.40;;
39994;SDS011;25686;51.908;10.418;2022-09-09T05:13:27;3.00;;;1.35;;
39994;SDS011;25686;51.908;10.418;2022-09-09T05:15:28;6.22;;;1.33;;
39994;SDS011;25686;51.908;10.418;2022-09-09T05:17:29;4.38;;;1.42;;
39994;SDS011;25686;51.908;10.418;2022-09-09T05:19:30;3.90;;;1.20;;
39994;SDS011;25686;51.908;10.418;2022-09-09T05:21:31;5.00;;;1.30;;
39994;SDS011;25686;51.908;10.418;2022-09-09T05:23:33;4.78;;;1.20;;
39994;SDS011;25686;51.908;10.418;2022-09-09T05:25:34;4.88;;;1.27;;
39994;SDS011;25686;51.908;10.418;2022-09-09T05:27:35;4.43;;;1.30;;
39994;SDS011;25686;51.908;10.418;2022-09-09T05:29:37;5.18;;;1.55;;
39994;SDS011;25686;51.908;10.418;2022-09-09T05:31:38;5.90;;;1.10;;
39994;SDS011;25686;51.908;10.418;2022-09-09T05:33:41;4.35;;;1.05;;
39994;SDS011;25686;51.908;10.418;2022-09-09T05:35:43;5.38;;;1.67;;
39994;SDS011;25686;51.908;10.418;2022-09-09T05:37:44;6.32;;;2.17;;
39994;SDS011;25686;51.908;10.418;2022-09-09T05:39:45;6.97;;;1.98;;
39994;SDS011;25686;51.908;10.418;2022-09-09T05:41:46;5.07;;;1.50;;
39994;SDS011;25686;51.908;10.418;2022-09-09T05:43:47;5.40;;;1.40;;
39994;SDS011;25686;51.908;10.418;2022-09-09T05:45:58;7.35;;;1.33;;
39994;SDS011;25686;51.908;10.418;2022-09-09T05:48:01;5.70;;;1.35;;
39994;SDS011;25686;51.908;10.418;2022-09-09T05:50:02;7.32;;;1.63;;
39994;SDS011;25686;51.908;10.418;2022-09-09T05:52:03;4.95;;;1.40;;
39994;SDS011;25686;51.908;10.418;2022-09-09T05:54:04;5.85;;;1.23;;
39994;SDS011;25686;51.908;10.418;2022-09-09T05:56:06;6.07;;;1.20;;
39994;SDS011;25686;51.908;10.418;2022-09-09T05:58:07;4.78;;;1.55;;
39994;SDS011;25686;51.908;10.418;2022-09-09T06:00:10;4.38;;;1.08;;
39994;SDS011;25686;51.908;10.418;2022-09-09T06:02:12;3.40;;;1.20;;
39994;SDS011;25686;51.908;10.418;2022-09-09T06:04:14;5.95;;;1.35;;
39994;SDS011;25686;51.908;10.418;2022-09-09T06:06:16;3.10;;;1.17;;
39994;SDS011;25686;51.908;10.418;2022-09-09T06:08:20;3.75;;;1.00;;
39994;SDS011;25686;51.908;10.418;2022-09-09T06:10:21;6.35;;;1.48;;
39994;SDS011;25686;51.908;10.418;2022-09-09T06:12:22;4.13;;;1.33;;
39994;SDS011;25686;51.908;10.418;2022-09-09T06:14:23;5.57;;;1.20;;
39994;SDS011;25686;51.908;10.418;2022-09-09T06:16:26;4.13;;;1.30;;
39994;SDS011;25686;51.908;10.418;2022-09-09T06:18:27;4.45;;;1.30;;
39994;SDS011;25686;51.908;10.418;2022-09-09T06:20:29;5.35;;;1.23;;
39994;SDS011;25686;51.908;10.418;2022-09-09T06:22:31;4.10;;;1.02;;
39994;SDS011;25686;51.908;10.418;2022-09-09T06:24:32;2.65;;;0.90;;
39994;SDS011;25686;51.908;10.418;2022-09-09T06:26:37;1.40;;;0.77;;
39994;SDS011;25686;51.908;10.418;2022-09-09T06:28:41;4.13;;;1.08;;
39994;SDS011;25686;51.908;10.418;2022-09-09T06:30:42;5.95;;;1.17;;
39994;SDS011;25686;51.908;10.418;2022-09-09T06:32:44;4.07;;;1.20;;
39994;SDS011;25686;51.908;10.418;2022-09-09T06:34:45;4.53;;;1.10;;
39994;SDS011;25686;51.908;10.418;2022-09-09T06:36:49;4.40;;;1.00;;
39994;SDS011;25686;51.908;10.418;2022-09-09T06:38:51;4.63;;;1.40;;
39994;SDS011;25686;51.908;10.418;2022-09-09T06:40:55;6.97;;;1.30;;
39994;SDS011;25686;51.908;10.418;2022-09-09T06:42:59;4.55;;;1.40;;
39994;SDS011;25686;51.908;10.418;2022-09-09T06:45:00;5.45;;;1.25;;
39994;SDS011;25686;51.908;10.418;2022-09-09T06:47:01;4.72;;;1.10;;
39994;SDS011;25686;51.908;10.418;2022-09-09T06:49:03;3.90;;;1.10;;
39994;SDS011;25686;51.908;10.418;2022-09-09T06:51:05;3.90;;;1.25;;
39994;SDS011;25686;51.908;10.418;2022-09-09T06:53:06;3.10;;;0.90;;
39994;SDS011;25686;51.908;10.418;2022-09-09T06:55:07;3.90;;;1.00;;
39994;SDS011;25686;51.908;10.418;2022-09-09T06:57:08;4.68;;;1.13;;
39994;SDS011;25686;51.908;10.418;2022-09-09T06:59:09;3.17;;;0.98;;
39994;SDS011;25686;51.908;10.418;2022-09-09T07:01:13;3.80;;;0.90;;
39994;SDS011;25686;51.908;10.418;2022-09-09T07:03:14;2.42;;;0.90;;
39994;SDS011;25686;51.908;10.418;2022-09-09T07:05:15;4.22;;;1.05;;
39994;SDS011;25686;51.908;10.418;2022-09-09T07:07:16;5.22;;;1.00;;
39994;SDS011;25686;51.908;10.418;2022-09-09T07:09:17;4.40;;;1.48;;
39994;SDS011;25686;51.908;10.418;2022-09-09T07:11:19;5.28;;;1.05;;
39994;SDS011;25686;51.908;10.418;2022-09-09T07:13:26;5.03;;;1.17;;
39994;SDS011;25686;51.908;10.418;2022-09-09T07:15:27;2.03;;;0.95;;
39994;SDS011;25686;51.908;10.418;2022-09-09T07:17:28;4.93;;;1.25;;
39994;SDS011;25686;51.908;10.418;2022-09-09T07:19:29;3.30;;;1.10;;
39994;SDS011;25686;51.908;10.418;2022-09-09T07:21:30;3.70;;;1.30;;
39994;SDS011;25686;51.908;10.418;2022-09-09T07:23:32;3.97;;;1.05;;
39994;SDS011;25686;51.908;10.418;2022-09-09T07:25:35;7.28;;;1.50;;
39994;SDS011;25686;51.908;10.418;2022-09-09T07:27:36;4.43;;;1.00;;
39994;SDS011;25686;51.908;10.418;2022-09-09T07:29:37;3.90;;;1.00;;
39994;SDS011;25686;51.908;10.418;2022-09-09T07:31:38;2.85;;;0.98;;
39994;SDS011;25686;51.908;10.418;2022-09-09T07:33:39;6.88;;;1.33;;
39994;SDS011;25686;51.908;10.418;2022-09-09T07:35:40;4.28;;;0.90;;
39994;SDS011;25686;51.908;10.418;2022-09-09T07:37:42;6.55;;;1.10;;
39994;SDS011;25686;51.908;10.418;2022-09-09T07:39:45;4.28;;;1.10;;
39994;SDS011;25686;51.908;10.418;2022-09-09T07:41:46;2.95;;;0.80;;
39994;SDS011;25686;51.908;10.418;2022-09-09T07:43:48;5.75;;;1.23;;
39994;SDS011;25686;51.908;10.418;2022-09-09T07:45:56;4.95;;;1.10;;
39994;SDS011;25686;51.908;10.418;2022-09-09T07:47:57;6.47;;;1.08;;
39994;SDS011;25686;51.908;10.418;2022-09-09T07:49:58;3.28;;;1.05;;
39994;SDS011;25686;51.908;10.418;2022-09-09T07:51:59;3.58;;;0.93;;
39994;SDS011;25686;51.908;10.418;2022-09-09T07:54:02;2.92;;;0.90;;
39994;SDS011;25686;51.908;10.418;2022-09-09T07:56:06;4.57;;;1.02;;
39994;SDS011;25686;51.908;10.418;2022-09-09T07:58:09;4.80;;;1.08;;
39994;SDS011;25686;51.908;10.418;2022-09-09T08:00:10;6.38;;;1.40;;
39994;SDS011;25686;51.908;10.418;2022-09-09T08:02:11;5.47;;;1.00;;
39994;SDS011;25686;51.908;10.418;2022-09-09T08:04:13;2.97;;;1.13;;
39994;SDS011;25686;51.908;10.418;2022-09-09T08:06:15;4.60;;;1.23;;
39994;SDS011;25686;51.908;10.418;2022-09-09T08:08:16;6.28;;;1.20;;
39994;SDS011;25686;51.908;10.418;2022-09-09T08:10:17;5.53;;;1.15;;
39994;SDS011;25686;51.908;10.418;2022-09-09T08:12:18;3.22;;;0.98;;
39994;SDS011;25686;51.908;10.418;2022-09-09T08:14:19;3.63;;;0.95;;
39994;SDS011;25686;51.908;10.418;2022-09-09T08:16:21;5.20;;;1.02;;
39994;SDS011;25686;51.908;10.418;2022-09-09T08:18:23;5.35;;;0.90;;
39994;SDS011;25686;51.908;10.418;2022-09-09T08:20:24;6.78;;;1.40;;
39994;SDS011;25686;51.908;10.418;2022-09-09T08:22:25;4.10;;;1.20;;
39994;SDS011;25686;51.908;10.418;2022-09-09T08:24:26;6.47;;;1.38;;
39994;SDS011;25686;51.908;10.418;2022-09-09T08:26:28;3.83;;;1.00;;
39994;SDS011;25686;51.908;10.418;2022-09-09T08:28:29;5.90;;;0.95;;
39994;SDS011;25686;51.908;10.418;2022-09-09T08:30:31;4.25;;;1.13;;
39994;SDS011;25686;51.908;10.418;2022-09-09T08:32:32;4.97;;;0.90;;
39994;SDS011;25686;51.908;10.418;2022-09-09T08:34:33;3.28;;;0.90;;
39994;SDS011;25686;51.908;10.418;2022-09-09T08:36:36;5.60;;;1.20;;
39994;SDS011;25686;51.908;10.418;2022-09-09T08:38:37;4.03;;;1.00;;
39994;SDS011;25686;51.908;10.418;2022-09-09T08:40:39;4.70;;;1.20;;
39994;SDS011;25686;51.908;10.418;2022-09-09T08:42:45;3.92;;;0.90;;
39994;SDS011;25686;51.908;10.418;2022-09-09T08:48:55;3.65;;;1.05;;
39994;SDS011;25686;51.908;10.418;2022-09-09T08:50:58;3.65;;;1.20;;
39994;SDS011;25686;51.908;10.418;2022-09-09T08:57:18;5.45;;;1.15;;
39994;SDS011;25686;51.908;10.418;2022-09-09T08:59:20;4.80;;;1.13;;
39994;SDS011;25686;51.908;10.418;2022-09-09T09:05:47;3.72;;;1.00;;
39994;SDS011;25686;51.908;10.418;2022-09-09T09:07:53;4.63;;;0.95;;
39994;SDS011;25686;51.908;10.418;2022-09-09T09:10:05;4.57;;;0.98;;
39994;SDS011;25686;51.908;10.418;2022-09-09T09:12:15;5.05;;;1.33;;
39994;SDS011;25686;51.908;10.418;2022-09-09T09:16:27;4.55;;;1.30;;
39994;SDS011;25686;51.908;10.418;2022-09-09T09:18:32;3.83;;;1.05;;
39994;SDS011;25686;51.908;10.418;2022-09-09T09:20:46;3.67;;;1.00;;
39994;SDS011;25686;51.908;10.418;2022-09-09T09:22:51;5.78;;;1.10;;
39994;SDS011;25686;51.908;10.418;2022-09-09T09:26:53;4.68;;;1.02;;
39994;SDS011;25686;51.908;10.418;2022-09-09T09:28:55;4.07;;;1.15;;
39994;SDS011;25686;51.908;10.418;2022-09-09T09:33:00;2.63;;;0.95;;
39994;SDS011;25686;51.908;10.418;2022-09-09T09:35:02;5.47;;;1.05;;
39994;SDS011;25686;51.908;10.418;2022-09-09T09:37:17;4.30;;;1.25;;
39994;SDS011;25686;51.908;10.418;2022-09-09T09:43:35;3.53;;;1.00;;
39994;SDS011;25686;51.908;10.418;2022-09-09T09:45:42;4.68;;;1.17;;
39994;SDS011;25686;51.908;10.418;2022-09-09T09:47:46;5.47;;;0.90;;
39994;SDS011;25686;51.908;10.418;2022-09-09T09:49:58;3.25;;;1.08;;
39994;SDS011;25686;51.908;10.418;2022-09-09T09:52:00;4.93;;;1.50;;
39994;SDS011;25686;51.908;10.418;2022-09-09T09:54:08;5.25;;;1.20;;
39994;SDS011;25686;51.908;10.418;2022-09-09T09:56:10;3.05;;;1.10;;
39994;SDS011;25686;51.908;10.418;2022-09-09T09:58:14;3.45;;;1.23;;
39994;SDS011;25686;51.908;10.418;2022-09-09T10:02:21;2.92;;;1.00;;
39994;SDS011;25686;51.908;10.418;2022-09-09T10:04:25;5.85;;;1.10;;
39994;SDS011;25686;51.908;10.418;2022-09-09T10:06:33;4.40;;;1.13;;
39994;SDS011;25686;51.908;10.418;2022-09-09T10:08:43;3.03;;;1.10;;
39994;SDS011;25686;51.908;10.418;2022-09-09T10:17:33;2.42;;;0.75;;
39994;SDS011;25686;51.908;10.418;2022-09-09T10:19:36;6.95;;;1.30;;
39994;SDS011;25686;51.908;10.418;2022-09-09T10:36:57;5.53;;;1.00;;
39994;SDS011;25686;51.908;10.418;2022-09-09T10:39:01;3.70;;;1.15;;
39994;SDS011;25686;51.908;10.418;2022-09-09T10:45:21;3.78;;;1.10;;
39994;SDS011;25686;51.908;10.418;2022-09-09T10:49:47;5.95;;;1.23;;
39994;SDS011;25686;51.908;10.418;2022-09-09T10:52:01;2.83;;;1.05;;
39994;SDS011;25686;51.908;10.418;2022-09-09T10:56:07;3.15;;;1.10;;
39994;SDS011;25686;51.908;10.418;2022-09-09T10:58:11;4.10;;;1.30;;
39994;SDS011;25686;51.908;10.418;2022-09-09T11:02:28;2.78;;;0.90;;
39994;SDS011;25686;51.908;10.418;2022-09-09T11:04:34;2.85;;;0.93;;
39994;SDS011;25686;51.908;10.418;2022-09-09T11:06:43;5.18;;;1.10;;
39994;SDS011;25686;51.908;10.418;2022-09-09T11:08:46;5.63;;;1.10;;
39994;SDS011;25686;51.908;10.418;2022-09-09T11:12:56;4.68;;;1.02;;
39994;SDS011;25686;51.908;10.418;2022-09-09T11:15:12;2.45;;;0.88;;
39994;SDS011;25686;51.908;10.418;2022-09-09T11:17:18;4.53;;;1.13;;
39994;SDS011;25686;51.908;10.418;2022-09-09T11:19:38;3.15;;;0.85;;
39994;SDS011;25686;51.908;10.418;2022-09-09T11:21:42;5.05;;;0.85;;
39994;SDS011;25686;51.908;10.418;2022-09-09T11:23:46;2.67;;;0.80;;
39994;SDS011;25686;51.908;10.418;2022-09-09T11:25:51;4.07;;;0.80;;
39994;SDS011;25686;51.908;10.418;2022-09-09T11:40:30;5.38;;;0.90;;
39994;SDS011;25686;51.908;10.418;2022-09-09T11:42:31;4.72;;;0.95;;
39994;SDS011;25686;51.908;10.418;2022-09-09T11:44:32;3.92;;;0.70;;
39994;SDS011;25686;51.908;10.418;2022-09-09T11:46:34;2.92;;;0.90;;
39994;SDS011;25686;51.908;10.418;2022-09-09T11:50:43;3.60;;;1.02;;
39994;SDS011;25686;51.908;10.418;2022-09-09T11:52:44;2.28;;;0.73;;
39994;SDS011;25686;51.908;10.418;2022-09-09T11:54:47;2.67;;;0.90;;
39994;SDS011;25686;51.908;10.418;2022-09-09T11:56:49;3.38;;;1.00;;
39994;SDS011;25686;51.908;10.418;2022-09-09T11:59:00;3.88;;;1.05;;
39994;SDS011;25686;51.908;10.418;2022-09-09T12:01:12;2.85;;;0.85;;
39994;SDS011;25686;51.908;10.418;2022-09-09T12:05:36;3.00;;;1.13;;
39994;SDS011;25686;51.908;10.418;2022-09-09T12:07:49;3.08;;;0.70;;
39994;SDS011;25686;51.908;10.418;2022-09-09T12:09:58;3.38;;;0.93;;
39994;SDS011;25686;51.908;10.418;2022-09-09T12:14:33;3.63;;;1.00;;
39994;SDS011;25686;51.908;10.418;2022-09-09T12:16:36;3.97;;;1.10;;
39994;SDS011;25686;51.908;10.418;2022-09-09T12:18:39;3.45;;;1.05;;
39994;SDS011;25686;51.908;10.418;2022-09-09T12:20:41;4.68;;;1.10;;
39994;SDS011;25686;51.908;10.418;2022-09-09T12:22:58;4.13;;;1.10;;
39994;SDS011;25686;51.908;10.418;2022-09-09T12:27:31;3.67;;;1.00;;
39994;SDS011;25686;51.908;10.418;2022-09-09T12:34:02;4.78;;;1.20;;
39994;SDS011;25686;51.908;10.418;2022-09-09T12:36:03;4.35;;;1.02;;
39994;SDS011;25686;51.908;10.418;2022-09-09T12:38:06;4.53;;;1.00;;
39994;SDS011;25686;51.908;10.418;2022-09-09T12:40:30;2.63;;;0.90;;
39994;SDS011;25686;51.908;10.418;2022-09-09T12:42:32;4.28;;;0.95;;
39994;SDS011;25686;51.908;10.418;2022-09-09T12:44:33;2.80;;;0.88;;
39994;SDS011;25686;51.908;10.418;2022-09-09T12:48:40;3.20;;;1.00;;
39994;SDS011;25686;51.908;10.418;2022-09-09T12:50:46;4.43;;;0.88;;
39994;SDS011;25686;51.908;10.418;2022-09-09T12:52:49;4.40;;;1.10;;
39994;SDS011;25686;51.908;10.418;2022-09-09T12:54:51;3.90;;;1.10;;
39994;SDS011;25686;51.908;10.418;2022-09-09T12:56:53;3.63;;;0.95;;
39994;SDS011;25686;51.908;10.418;2022-09-09T12:58:55;3.03;;;0.95;;
39994;SDS011;25686;51.908;10.418;2022-09-09T13:00:56;3.17;;;0.95;;
39994;SDS011;25686;51.908;10.418;2022-09-09T13:02:58;1.75;;;0.80;;
39994;SDS011;25686;51.908;10.418;2022-09-09T13:05:34;2.47;;;0.80;;
39994;SDS011;25686;51.908;10.418;2022-09-09T13:07:27;4.05;;;0.90;;
39994;SDS011;25686;51.908;10.418;2022-09-09T13:09:28;3.10;;;0.68;;
39994;SDS011;25686;51.908;10.418;2022-09-09T13:11:36;2.30;;;0.70;;
39994;SDS011;25686;51.908;10.418;2022-09-09T13:13:39;4.75;;;0.95;;
39994;SDS011;25686;51.908;10.418;2022-09-09T13:15:47;2.92;;;0.70;;
39994;SDS011;25686;51.908;10.418;2022-09-09T13:17:58;3.65;;;1.00;;
39994;SDS011;25686;51.908;10.418;2022-09-09T13:20:00;5.30;;;0.98;;
39994;SDS011;25686;51.908;10.418;2022-09-09T13:22:12;4.22;;;0.82;;
39994;SDS011;25686;51.908;10.418;2022-09-09T13:24:29;4.07;;;0.80;;
39994;SDS011;25686;51.908;10.418;2022-09-09T13:26:31;4.10;;;0.82;;
39994;SDS011;25686;51.908;10.418;2022-09-09T13:28:32;3.33;;;0.75;;
39994;SDS011;25686;51.908;10.418;2022-09-09T13:32:36;3.20;;;0.80;;
39994;SDS011;25686;51.908;10.418;2022-09-09T13:34:37;3.03;;;0.80;;
39994;SDS011;25686;51.908;10.418;2022-09-09T13:36:38;4.43;;;0.90;;
39994;SDS011;25686;51.908;10.418;2022-09-09T13:38:53;8.93;;;1.20;;
39994;SDS011;25686;51.908;10.418;2022-09-09T13:40:59;3.60;;;0.80;;
39994;SDS011;25686;51.908;10.418;2022-09-09T13:43:04;2.20;;;0.73;;
39994;SDS011;25686;51.908;10.418;2022-09-09T13:45:05;3.15;;;0.75;;
39994;SDS011;25686;51.908;10.418;2022-09-09T13:47:19;4.68;;;0.82;;
39994;SDS011;25686;51.908;10.418;2022-09-09T13:49:21;3.55;;;0.70;;
39994;SDS011;25686;51.908;10.418;2022-09-09T13:53:38;4.60;;;0.70;;
39994;SDS011;25686;51.908;10.418;2022-09-09T13:55:39;2.53;;;0.50;;
39994;SDS011;25686;51.908;10.418;2022-09-09T13:57:51;3.42;;;0.77;;
39994;SDS011;25686;51.908;10.418;2022-09-09T13:59:53;2.92;;;0.85;;
39994;SDS011;25686;51.908;10.418;2022-09-09T14:01:57;3.20;;;0.70;;
39994;SDS011;25686;51.908;10.418;2022-09-09T14:03:59;4.13;;;0.88;;
39994;SDS011;25686;51.908;10.418;2022-09-09T14:06:00;1.90;;;0.63;;
39994;SDS011;25686;51.908;10.418;2022-09-09T14:08:03;3.92;;;0.70;;
39994;SDS011;25686;51.908;10.418;2022-09-09T14:10:04;2.70;;;0.80;;
39994;SDS011;25686;51.908;10.418;2022-09-09T14:12:08;4.00;;;0.75;;
39994;SDS011;25686;51.908;10.418;2022-09-09T14:14:10;4.07;;;0.60;;
39994;SDS011;25686;51.908;10.418;2022-09-09T14:16:11;3.05;;;0.80;;
39994;SDS011;25686;51.908;10.418;2022-09-09T14:18:12;4.60;;;0.77;;
39994;SDS011;25686;51.908;10.418;2022-09-09T14:20:13;7.10;;;0.80;;
39994;SDS011;25686;51.908;10.418;2022-09-09T14:22:15;3.92;;;0.82;;
39994;SDS011;25686;51.908;10.418;2022-09-09T14:24:16;4.72;;;0.77;;
39994;SDS011;25686;51.908;10.418;2022-09-09T14:26:17;3.88;;;0.93;;